Time;durP1;ratioP1;P1;durP2;ratioP2;P2;SDS_P1;SDS_P2;PMS_P1;PMS_P2;Temp;Humidity;BMP_temperature;BMP_pressure;BME280_temperature;BME280_humidity;BME280_pressure;Samples;Min_cycle;Max_cycle;Signal;HPM_P1;HPM_P2
2022/11/04 00:01:30;;;;;;;23.02;16.55;;;;;;;;;;5070098;28;20448;-75
2022/11/04 00:03:56;;;;;;;21.57;17.00;;;;;;;;;;5090126;28;20398;-74
2022/11/04 00:06:22;;;;;;;22.05;17.13;;;;;;;;;;5067488;28;20431;-75
2022/11/04 00:08:53;;;;;;;22.40;16.88;;;;;;;;;;5079295;28;20410;-75
2022/11/04 00:14:05;;;;;;;14.95;11.48;;;;;;;;;;5102299;28;20813;-75
2022/11/04 00:19:16;;;;;;;12.25;8.90;;;;;;;;;;5088751;28;20426;-75
2022/11/04 00:29:41;;;;;;;7.05;5.10;;;;;;;;;;5086911;28;20450;-75
2022/11/04 00:34:52;;;;;;;6.97;4.10;;;;;;;;;;5087433;28;20429;-76
2022/11/04 00:37:18;;;;;;;7.35;3.40;;;;;;;;;;5101661;28;20425;-75
2022/11/04 00:39:44;;;;;;;5.00;2.35;;;;;;;;;;5087866;28;20951;-75
2022/11/04 00:42:10;;;;;;;4.88;1.98;;;;;;;;;;5070842;28;20407;-75
2022/11/04 00:44:36;;;;;;;6.28;2.10;;;;;;;;;;5069664;28;20417;-75
2022/11/04 00:47:02;;;;;;;4.78;2.03;;;;;;;;;;5085709;28;20510;-75
2022/11/04 00:49:28;;;;;;;5.82;1.80;;;;;;;;;;5071144;28;20422;-76
2022/11/04 00:51:55;;;;;;;3.70;1.60;;;;;;;;;;5087628;28;20497;-76
2022/11/04 00:54:21;;;;;;;7.95;1.55;;;;;;;;;;5073814;28;20436;-76
2022/11/04 00:56:50;;;;;;;3.95;1.40;;;;;;;;;;5090923;28;20930;-75
2022/11/04 00:59:16;;;;;;;3.75;1.20;;;;;;;;;;5093335;28;20885;-75
2022/11/04 01:01:42;;;;;;;3.20;0.98;;;;;;;;;;5063189;28;20449;-75
2022/11/04 01:04:09;;;;;;;2.60;1.10;;;;;;;;;;5091467;28;20425;-75
2022/11/04 01:06:35;;;;;;;5.20;1.10;;;;;;;;;;5072894;28;20418;-75
2022/11/04 01:09:03;;;;;;;5.38;1.00;;;;;;;;;;5076203;28;20457;-75
2022/11/04 01:11:30;;;;;;;4.95;0.95;;;;;;;;;;5090658;28;20418;-75
2022/11/04 01:13:56;;;;;;;3.17;1.00;;;;;;;;;;5111383;28;20413;-75
2022/11/04 01:16:23;;;;;;;3.13;1.08;;;;;;;;;;5094637;28;20421;-75
2022/11/04 01:18:49;;;;;;;4.50;0.90;;;;;;;;;;5072964;28;20526;-74
2022/11/04 01:21:16;;;;;;;2.92;0.80;;;;;;;;;;5088239;28;20414;-75
2022/11/04 01:23:43;;;;;;;3.78;0.98;;;;;;;;;;5076024;28;20434;-75
2022/11/04 01:26:12;;;;;;;5.47;0.90;;;;;;;;;;5088596;28;20510;-75
2022/11/04 01:28:38;;;;;;;2.97;0.80;;;;;;;;;;5108985;28;20489;-75
2022/11/04 01:31:05;;;;;;;4.18;0.90;;;;;;;;;;5092271;28;20524;-75
2022/11/04 01:33:32;;;;;;;5.80;1.10;;;;;;;;;;5083715;28;20746;-75
2022/11/04 01:36:01;;;;;;;4.07;1.08;;;;;;;;;;5088276;28;20512;-75
2022/11/04 01:38:28;;;;;;;5.25;1.00;;;;;;;;;;5093395;28;20414;-75
2022/11/04 01:40:54;;;;;;;2.47;0.85;;;;;;;;;;5093077;28;20501;-75
2022/11/04 01:43:21;;;;;;;4.80;1.10;;;;;;;;;;5090691;28;20421;-75
2022/11/04 01:45:49;;;;;;;4.15;1.15;;;;;;;;;;5092467;28;20707;-75
2022/11/04 01:48:20;;;;;;;6.47;1.10;;;;;;;;;;5070220;28;20875;-75
2022/11/04 01:50:47;;;;;;;4.47;1.10;;;;;;;;;;5090323;28;20782;-75
2022/11/04 01:53:18;;;;;;;6.30;1.17;;;;;;;;;;5090671;28;20421;-74
2022/11/04 01:55:51;;;;;;;6.80;1.47;;;;;;;;;;5098389;28;20551;-74
2022/11/04 01:58:18;;;;;;;5.22;1.40;;;;;;;;;;5090152;28;20414;-74
2022/11/04 02:00:44;;;;;;;9.80;1.47;;;;;;;;;;5092988;28;20409;-75
2022/11/04 02:03:13;;;;;;;5.78;1.10;;;;;;;;;;5099307;28;20408;-75
2022/11/04 02:05:39;;;;;;;7.88;1.63;;;;;;;;;;5092314;28;20452;-75
2022/11/04 02:08:06;;;;;;;5.73;1.30;;;;;;;;;;5071170;28;20917;-75
2022/11/04 02:10:33;;;;;;;7.82;1.40;;;;;;;;;;5093511;28;20398;-75
2022/11/04 02:13:01;;;;;;;6.00;1.10;;;;;;;;;;5089909;28;20481;-75
2022/11/04 02:15:30;;;;;;;3.53;1.10;;;;;;;;;;5092020;28;20996;-75
2022/11/04 02:18:09;;;;;;;6.07;1.20;;;;;;;;;;5089047;28;20420;-75
2022/11/04 02:20:35;;;;;;;4.82;1.30;;;;;;;;;;5074294;28;20436;-75
2022/11/04 02:23:04;;;;;;;5.57;1.25;;;;;;;;;;5088753;28;20500;-75
2022/11/04 02:25:31;;;;;;;8.10;1.37;;;;;;;;;;5090291;28;20416;-75
2022/11/04 02:28:00;;;;;;;6.53;1.35;;;;;;;;;;5087012;28;20406;-75
2022/11/04 02:30:31;;;;;;;7.03;1.27;;;;;;;;;;5091001;28;20928;-75
2022/11/04 02:33:10;;;;;;;7.45;1.30;;;;;;;;;;5090236;28;20421;-76
2022/11/04 02:35:36;;;;;;;9.10;1.40;;;;;;;;;;5087064;28;20434;-76
2022/11/04 02:38:14;;;;;;;6.57;1.20;;;;;;;;;;5087427;28;20438;-76
2022/11/04 02:40:42;;;;;;;7.18;1.48;;;;;;;;;;5084375;28;20418;-76
2022/11/04 02:43:31;;;;;;;6.38;1.40;;;10.40;99.90;;;;;;5090617;28;20463;-77
2022/11/04 02:46:11;;;;;;;8.60;1.63;;;;;;;;;;5066571;28;20427;-77
2022/11/04 02:48:48;;;;;;;10.05;1.65;;;;;;;;;;5088700;28;20463;-75
2022/11/04 02:51:18;;;;;;;8.57;1.45;;;;;;;;;;5080401;28;20452;-75
2022/11/04 02:53:50;;;;;;;9.10;1.53;;;;;;;;;;5072624;28;20424;-76
2022/11/04 02:56:17;;;;;;;8.00;1.60;;;;;;;;;;5091788;28;20475;-76
2022/11/04 02:58:45;;;;;;;6.90;1.65;;;;;;;;;;5068007;28;20421;-76
2022/11/04 03:01:14;;;;;;;5.80;1.33;;;;;;;;;;5085223;28;20406;-76
2022/11/04 03:03:43;;;;;;;4.68;1.40;;;;;;;;;;5071710;28;20516;-76
2022/11/04 03:06:10;;;;;;;7.97;1.55;;;;;;;;;;5089982;28;20418;-76
2022/11/04 03:08:40;;;;;;;4.90;1.50;;;;;;;;;;5090741;28;20901;-75
2022/11/04 03:11:10;;;;;;;5.70;1.25;;;;;;;;;;5090418;28;20418;-75
2022/11/04 03:13:38;;;;;;;6.35;1.50;;;;;;;;;;5089565;28;20406;-75
2022/11/04 03:16:11;;;;;;;4.43;1.27;;;;;;;;;;5087753;28;20499;-75
2022/11/04 03:18:55;;;;;;;8.20;1.80;;;;;;;;;;5088115;28;20498;-75
2022/11/04 03:21:22;;;;;;;6.32;1.50;;;;;;;;;;5088782;28;20417;-73
2022/11/04 03:23:49;;;;;;;5.55;1.60;;;;;;;;;;5088241;28;20914;-75
2022/11/04 03:26:39;;;;;;;8.55;1.73;;;;;;;;;;5090690;28;20418;-76
2022/11/04 03:29:15;;;;;;;6.38;1.52;;;;;;;;;;5082181;28;20421;-75
2022/11/04 03:31:47;;;;;;;4.90;1.58;;;;;;;;;;5087336;28;20418;-75
2022/11/04 03:34:13;;;;;;;7.38;1.63;;;;;;;;;;5081642;28;20406;-75
2022/11/04 03:36:41;;;;;;;6.10;1.80;;;;;;;;;;5091074;28;20425;-75
2022/11/04 03:39:07;;;;;;;5.75;1.85;;;;;;;;;;5086370;28;20430;-75
2022/11/04 03:41:33;;;;;;;5.82;1.88;;;;;;;;;;5090045;28;20411;-75
2022/11/04 03:43:59;;;;;;;8.50;2.10;;;;;;;;;;5087304;28;20813;-76
2022/11/04 03:46:25;;;;;;;8.45;2.35;;;;;;;;;;5089977;28;20517;-75
2022/11/04 03:48:52;;;;;;;7.38;2.45;;;;;;;;;;5085728;28;20416;-75
2022/11/04 03:51:19;;;;;;;6.63;2.33;;;;;;;;;;5089956;28;20755;-75
2022/11/04 03:53:45;;;;;;;6.27;2.20;;;;;;;;;;5089028;28;20417;-75
2022/11/04 03:56:14;;;;;;;8.32;1.90;;;;;;;;;;5073383;28;20425;-75
2022/11/04 03:58:57;;;;;;;7.53;1.80;;;;;;;;;;5091705;28;20882;-75
2022/11/04 04:01:37;;;;;;;8.70;1.70;;;;;;;;;;5090912;28;20431;-77
2022/11/04 04:04:18;;;;;;;8.90;1.58;;;;;;;;;;5088283;28;20398;-77
2022/11/04 04:06:45;;;;;;;7.93;1.63;;;;;;;;;;5090895;28;20492;-77
2022/11/04 04:09:23;;;;;;;9.07;1.90;;;;;;;;;;5071371;28;20414;-78
2022/11/04 04:12:05;;;;;;;9.73;1.98;;;;;;;;;;5066547;28;20426;-78
2022/11/04 04:14:39;;;;;;;7.68;1.80;;;;;;;;;;5088385;28;20424;-78
2022/11/04 04:17:18;;;;;;;7.18;1.67;;;;;;;;;;5089577;28;20509;-77
2022/11/04 04:19:53;;;;;;;8.07;1.60;;;10.50;99.90;;;;;;5072434;28;20503;-77
2022/11/04 04:22:22;;;;;;;7.72;2.00;;;;;;;;;;5090591;28;20405;-76
2022/11/04 04:27:35;;;;;;;6.63;1.55;;;;;;;;;;5094013;28;20441;-77
2022/11/04 04:30:12;;;;;;;6.83;1.50;;;10.30;99.90;;;;;;5074939;28;20415;-77
2022/11/04 04:32:40;;;;;;;5.88;1.50;;;;;;;;;;5077109;28;20406;-77
2022/11/04 04:37:53;;;;;;;6.40;1.60;;;;;;;;;;5093903;28;20743;-77
2022/11/04 04:45:58;;;;;;;4.93;1.35;;;;;;;;;;5089435;28;20428;-77
2022/11/04 04:48:25;;;;;;;5.53;1.20;;;;;;;;;;5056787;28;20772;-77
2022/11/04 04:50:55;;;;;;;5.85;1.20;;;;;;;;;;5080679;28;20429;-76
2022/11/04 04:53:21;;;;;;;4.00;1.10;;;;;;;;;;5093851;28;20402;-75
2022/11/04 04:55:48;;;;;;;4.25;1.40;;;;;;;;;;5060332;28;20497;-76
2022/11/04 04:58:14;;;;;;;5.53;1.10;;;;;;;;;;5056725;28;20480;-75
2022/11/04 05:00:40;;;;;;;5.83;1.40;;;;;;;;;;5086202;28;20419;-75
2022/11/04 05:03:06;;;;;;;5.53;1.27;;;;;;;;;;5090317;28;20774;-75
2022/11/04 05:05:32;;;;;;;3.20;0.95;;;;;;;;;;5090525;28;20501;-75
2022/11/04 05:08:07;;;;;;;4.55;1.20;;;;;;;;;;5095758;28;20516;-75
2022/11/04 05:10:33;;;;;;;5.25;1.40;;;;;;;;;;5093891;28;20858;-75
2022/11/04 05:15:45;;;;;;;5.07;1.42;;;;;;;;;;5092503;28;20465;-75
2022/11/04 05:18:11;;;;;;;5.10;1.30;;;;;;;;;;5076465;28;20527;-76
2022/11/04 05:20:39;;;;;;;3.33;1.30;;;;;;;;;;5069612;28;20426;-75
2022/11/04 05:23:05;;;;;;;6.15;1.67;;;;;;;;;;5079333;28;20426;-75
2022/11/04 05:25:31;;;;;;;5.78;1.38;;;;;;;;;;5112614;28;20427;-76
2022/11/04 05:28:01;;;;;;;4.78;1.30;;;;;;;;;;5090873;28;20422;-75
2022/11/04 05:30:27;;;;;;;5.63;1.45;;;;;;;;;;5078935;28;20462;-75
2022/11/04 05:32:53;;;;;;;6.28;1.40;;;;;;;;;;5094186;28;20931;-76
2022/11/04 05:35:19;;;;;;;4.10;1.45;;;;;;;;;;5114398;28;20775;-76
2022/11/04 05:37:45;;;;;;;5.32;1.50;;;;;;;;;;5093069;28;20418;-76
2022/11/04 05:40:12;;;;;;;4.25;1.42;;;;;;;;;;5089867;28;20414;-75
2022/11/04 05:42:38;;;;;;;8.00;1.60;;;;;;;;;;5090173;28;20457;-75
2022/11/04 05:45:04;;;;;;;5.05;1.50;;;;;;;;;;5091523;28;20918;-76
2022/11/04 05:47:30;;;;;;;7.93;2.85;;;;;;;;;;5086147;28;20417;-77
2022/11/04 05:49:56;;;;;;;6.57;2.70;;;;;;;;;;5089505;28;20413;-77
2022/11/04 05:52:22;;;;;;;11.48;2.92;;;;;;;;;;5085155;28;20479;-76
2022/11/04 05:54:48;;;;;;;48.63;6.82;;;;;;;;;;5092551;28;20505;-76
2022/11/04 05:57:14;;;;;;;9.13;2.60;;;;;;;;;;5069676;28;20450;-76
2022/11/04 05:59:40;;;;;;;5.60;2.08;;;;;;;;;;5086182;28;20449;-77
2022/11/04 06:02:06;;;;;;;32.47;4.95;;;;;;;;;;5088625;28;20417;-79
2022/11/04 06:04:33;;;;;;;8.50;2.38;;;;;;;;;;5090020;28;20417;-79
2022/11/04 06:06:59;;;;;;;22.92;7.22;;;;;;;;;;5090190;28;20814;-77
2022/11/04 06:09:37;;;;;;;31.77;5.38;;;;;;;;;;5054486;28;20921;-77
2022/11/04 06:12:04;;;;;;;12.73;3.55;;;;;;;;;;5095116;28;20447;-76
2022/11/04 06:14:30;;;;;;;7.07;2.60;;;;;;;;;;5092665;28;20394;-77
2022/11/04 06:16:56;;;;;;;6.07;2.70;;;;;;;;;;5087684;28;20474;-78
2022/11/04 06:19:22;;;;;;;4.75;2.30;;;;;;;;;;5083077;28;20911;-77
2022/11/04 06:21:49;;;;;;;5.07;2.42;;;;;;;;;;5078116;28;20419;-78
2022/11/04 06:24:15;;;;;;;6.17;2.70;;;;;;;;;;5090289;28;20414;-77
2022/11/04 06:26:41;;;;;;;4.95;2.78;;;;;;;;;;5084847;28;20505;-77
2022/11/04 06:29:08;;;;;;;5.20;2.25;;;;;;;;;;5072480;28;20790;-78
2022/11/04 06:31:34;;;;;;;4.88;2.28;;;;;;;;;;5090205;28;20406;-78
2022/11/04 06:34:00;;;;;;;6.45;2.53;;;;;;;;;;5071854;28;20923;-78
2022/11/04 06:36:27;;;;;;;5.60;2.28;;;;;;;;;;5073507;28;20417;-77
2022/11/04 06:38:53;;;;;;;6.80;2.50;;;;;;;;;;5075278;28;20420;-77
2022/11/04 06:41:19;;;;;;;5.57;2.40;;;;;;;;;;5067412;28;21042;-77
2022/11/04 06:43:45;;;;;;;5.50;2.07;;;;;;;;;;5087500;28;20965;-77
2022/11/04 06:46:25;;;;;;;5.68;2.15;;;;;;;;;;5075124;28;20398;-78
2022/11/04 06:48:53;;;;;;;5.38;2.00;;;;;;;;;;5090884;28;20901;-78
2022/11/04 06:51:19;;;;;;;4.33;2.10;;;;;;;;;;5074332;28;20859;-77
2022/11/04 06:53:45;;;;;;;6.38;2.33;;;;;;;;;;5075823;28;20422;-77
2022/11/04 06:56:11;;;;;;;4.00;1.83;;;;;;;;;;5059092;28;20451;-78
2022/11/04 06:58:37;;;;;;;6.23;2.30;;;;;;;;;;5075683;28;20517;-78
2022/11/04 07:01:03;;;;;;;6.53;2.40;;;;;;;;;;5080500;28;20426;-78
2022/11/04 07:03:29;;;;;;;5.97;2.15;;;;;;;;;;5060366;28;20413;-77
2022/11/04 07:05:55;;;;;;;6.55;2.10;;;;;;;;;;5070684;28;20454;-74
2022/11/04 07:08:22;;;;;;;5.78;2.20;;;;;;;;;;5067943;28;20421;-74
2022/11/04 07:10:48;;;;;;;5.57;2.10;;;;;;;;;;5070166;28;20423;-75
2022/11/04 07:13:15;;;;;;;6.13;2.20;;;;;;;;;;5055915;28;20511;-75
2022/11/04 07:15:41;;;;;;;5.88;2.10;;;;;;;;;;5091031;28;20441;-75
2022/11/04 07:18:07;;;;;;;5.47;2.10;;;;;;;;;;5087434;28;20498;-75
2022/11/04 07:20:34;;;;;;;6.25;2.00;;;;;;;;;;5072437;28;20422;-75
2022/11/04 07:23:00;;;;;;;5.50;2.43;;;;;;;;;;5084363;28;20484;-74
2022/11/04 07:25:26;;;;;;;8.25;2.47;;;;;;;;;;5088128;28;20419;-74
2022/11/04 07:27:52;;;;;;;7.00;2.28;;;;;;;;;;5071723;28;20417;-75
2022/11/04 07:30:19;;;;;;;6.20;2.40;;;;;;;;;;5082833;28;20423;-74
2022/11/04 07:32:45;;;;;;;5.68;2.10;;;;;;;;;;5094668;28;20920;-74
2022/11/04 07:35:12;;;;;;;6.07;2.28;;;;;;;;;;5090559;28;20932;-75
2022/11/04 07:37:38;;;;;;;5.47;2.10;;;;;;;;;;5089679;28;20798;-75
2022/11/04 07:40:05;;;;;;;4.95;2.42;;;;;;;;;;5084492;28;20429;-75
2022/11/04 07:42:31;;;;;;;6.75;2.30;;;;;;;;;;5083746;28;20420;-75
2022/11/04 07:44:57;;;;;;;6.15;2.38;;;;;;;;;;5083357;28;20422;-75
2022/11/04 07:47:23;;;;;;;7.90;2.20;;;;;;;;;;5094766;28;20470;-75
2022/11/04 07:49:50;;;;;;;7.15;2.00;;;;;;;;;;5085111;28;20992;-75
2022/11/04 07:52:16;;;;;;;3.75;1.80;;;;;;;;;;5088867;28;20467;-75
2022/11/04 07:54:42;;;;;;;5.35;1.77;;;;;;;;;;5070649;28;20420;-75
2022/11/04 07:57:08;;;;;;;4.45;1.73;;;;;;;;;;5069463;28;20431;-75
2022/11/04 07:59:34;;;;;;;5.35;1.98;;;;;;;;;;5064059;28;20415;-76
2022/11/04 08:02:00;;;;;;;4.00;1.50;;;;;;;;;;5088532;28;20410;-75
2022/11/04 08:04:26;;;;;;;4.75;1.58;;;;;;;;;;5070379;28;20441;-75
2022/11/04 08:06:52;;;;;;;4.72;1.70;;;;;;;;;;5085687;28;20424;-75
2022/11/04 08:09:19;;;;;;;6.18;1.83;;;;;;;;;;5085335;28;20426;-76
2022/11/04 08:11:45;;;;;;;5.22;1.70;;;;;;;;;;5074794;28;20560;-76
2022/11/04 08:14:11;;;;;;;4.25;1.75;;;;;;;;;;5079490;28;20421;-76
2022/11/04 08:16:37;;;;;;;4.20;1.90;;;;;;;;;;5090195;28;20432;-76
2022/11/04 08:19:02;;;;;;;5.32;1.85;;;10.20;99.90;;;;;;5069687;28;20418;-75
2022/11/04 08:21:29;;;;;;;4.18;1.60;;;;;;;;;;5068960;28;20543;-75
2022/11/04 08:23:55;;;;;;;6.00;1.92;;;;;;;;;;5089343;28;20778;-75
2022/11/04 08:26:22;;;;;;;3.78;1.90;;;;;;;;;;5072528;28;20431;-75
2022/11/04 08:28:49;;;;;;;3.58;1.92;;;10.10;99.90;;;;;;5094129;28;20949;-75
2022/11/04 08:31:18;;;;;;;6.45;1.90;;;;;;;;;;5086371;28;21097;-75
2022/11/04 08:33:45;;;;;;;5.00;1.90;;;;;;;;;;5078954;28;20414;-75
2022/11/04 08:36:16;;;;;;;3.90;1.65;;;;;;;;;;5088451;28;20774;-75
2022/11/04 08:38:42;;;;;;;3.73;1.77;;;;;;;;;;5069933;28;20933;-75
2022/11/04 08:41:08;;;;;;;4.88;1.90;;;;;;;;;;5062273;28;20937;-75
2022/11/04 08:43:34;;;;;;;3.45;1.60;;;10.10;99.90;;;;;;5072060;28;20911;-75
2022/11/04 08:46:01;;;;;;;3.47;1.60;;;;;;;;;;5090104;28;20510;-76
2022/11/04 08:48:27;;;;;;;4.55;1.60;;;;;;;;;;5092772;28;20790;-75
2022/11/04 08:50:55;;;;;;;3.90;1.63;;;;;;;;;;5086340;28;20432;-75
2022/11/04 08:53:21;;;;;;;3.15;1.58;;;;;;;;;;5068368;28;20927;-75
2022/11/04 08:55:48;;;;;;;5.05;1.88;;;;;;;;;;5086978;28;20943;-75
2022/11/04 08:58:14;;;;;;;4.68;1.80;;;;;;;;;;5091954;28;20418;-74
2022/11/04 09:00:40;;;;;;;4.68;1.75;;;;;;;;;;5066247;28;20426;-74
2022/11/04 09:03:07;;;;;;;4.47;1.60;;;;;;;;;;5066178;28;20432;-74
2022/11/04 09:05:33;;;;;;;4.80;1.88;;;;;;;;;;5073081;28;20520;-75
2022/11/04 09:08:00;;;;;;;4.70;1.83;;;;;;;;;;5087831;28;20497;-75
2022/11/04 09:10:27;;;;;;;4.55;2.10;;;;;;;;;;5086923;28;20461;-74
2022/11/04 09:12:53;;;;;;;4.65;1.70;;;;;;;;;;5066347;28;20429;-74
2022/11/04 09:15:19;;;;;;;4.47;1.85;;;;;;;;;;5073624;28;20454;-75
2022/11/04 09:17:45;;;;;;;6.38;1.73;;;;;;;;;;5091018;28;20467;-76
2022/11/04 09:20:11;;;;;;;7.03;1.88;;;;;;;;;;5090525;28;20421;-77
2022/11/04 09:22:37;;;;;;;3.45;1.67;;;;;;;;;;5072219;28;20422;-76
2022/11/04 09:25:04;;;;;;;6.07;1.73;;;;;;;;;;5088108;28;20919;-75
2022/11/04 09:27:29;;;;;;;5.18;2.00;;;11.80;99.90;;;;;;5056173;28;20421;-75
2022/11/04 09:29:55;;;;;;;6.43;1.80;;;;;;;;;;5067317;28;20519;-75
2022/11/04 09:32:21;;;;;;;5.47;2.00;;;;;;;;;;5071928;28;20413;-75
2022/11/04 09:34:48;;;;;;;4.22;1.95;;;;;;;;;;5091460;28;20418;-75
2022/11/04 09:37:14;;;;;;;4.07;1.75;;;;;;;;;;5065712;28;20422;-75
2022/11/04 09:39:44;;;;;;;4.47;1.90;;;;;;;;;;5087543;28;20422;-74
2022/11/04 09:42:22;;;;;;;4.15;1.50;;;;;;;;;;5086136;28;20503;-75
2022/11/04 09:44:58;;;;;;;5.05;1.77;;;12.10;99.90;;;;;;5090819;28;20445;-75
2022/11/04 09:47:25;;;;;;;5.18;1.70;;;11.80;99.90;;;;;;5081013;28;20472;-74
2022/11/04 09:49:56;;;;;;;4.57;1.60;;;12.20;99.90;;;;;;5092156;28;20410;-75
2022/11/04 09:52:38;;;;;;;5.03;1.40;;;12.20;99.90;;;;;;5073286;28;20426;-75
2022/11/04 09:55:29;;;;;;;3.95;1.40;;;12.20;99.90;;;;;;5075273;28;20508;-75
2022/11/04 09:58:00;;;;;;;5.73;1.70;;;;;;;;;;5087568;28;21021;-75
2022/11/04 10:00:30;;;;;;;5.95;1.70;;;12.70;99.90;;;;;;5086746;28;20410;-74
2022/11/04 10:03:36;;;;;;;3.40;1.30;;;12.80;99.90;;;;;;5082249;28;20414;-75
2022/11/04 10:06:09;;;;;;;4.43;1.65;;;;;;;;;;5070377;28;20409;-75
2022/11/04 10:08:38;;;;;;;4.47;1.48;;;;;;;;;;5088302;28;20479;-75
2022/11/04 10:11:05;;;;;;;5.22;1.50;;;;;;;;;;5092215;28;20676;-75
2022/11/04 10:13:50;;;;;;;3.92;1.50;;;;;;;;;;5092671;28;20398;-75
2022/11/04 10:16:16;;;;;;;5.88;1.60;;;;;;;;;;5095137;27;20424;-75
2022/11/04 10:19:00;;;;;;;4.65;1.60;;;13.00;99.90;;;;;;5089870;28;20455;-74
2022/11/04 10:21:35;;;;;;;6.47;1.63;;;13.20;99.90;;;;;;5083291;28;20399;-74
2022/11/04 10:24:19;;;;;;;6.60;1.70;;;;;;;;;;5077579;28;20783;-75
2022/11/04 10:26:56;;;;;;;5.72;1.52;;;13.40;99.90;;;;;;5082686;28;20431;-76
2022/11/04 10:29:28;;;;;;;4.97;1.60;;;;;;;;;;5086169;28;20424;-75
2022/11/04 10:31:56;;;;;;;5.18;1.50;;;;;;;;;;5086008;28;20424;-75
2022/11/04 10:34:27;;;;;;;4.35;1.30;;;;;;;;;;5075954;28;20422;-75
2022/11/04 10:36:54;;;;;;;4.72;1.40;;;;;;;;;;5072362;28;20432;-75
2022/11/04 10:39:28;;;;;;;4.97;1.20;;;13.30;99.90;;;;;;5064091;28;20428;-75
2022/11/04 10:41:54;;;;;;;5.10;1.00;;;13.10;99.90;;;;;;5072783;28;20426;-75
2022/11/04 10:44:25;;;;;;;5.68;1.60;;;12.80;99.90;;;;;;5086588;28;20419;-75
2022/11/04 10:47:10;;;;;;;4.88;1.27;;;;;;;;;;5091315;28;20440;-75
2022/11/04 10:49:48;;;;;;;5.37;1.40;;;;;;;;;;5072813;28;20413;-74
2022/11/04 10:52:15;;;;;;;7.10;1.30;;;;;;;;;;5082761;28;20977;-75
2022/11/04 10:54:46;;;;;;;5.40;1.30;;;;;;;;;;5090314;28;20485;-75
2022/11/04 10:57:25;;;;;;;5.75;1.30;;;13.20;99.90;;;;;;5071774;28;20429;-75
2022/11/04 10:59:56;;;;;;;8.60;1.20;;;13.10;99.90;;;;;;5089850;28;20972;-75
2022/11/04 11:02:43;;;;;;;5.97;1.30;;;13.50;99.90;;;;;;5092151;28;20808;-75
2022/11/04 11:05:12;;;;;;;4.88;1.38;;;;;;;;;;5070714;28;20404;-75
2022/11/04 11:07:38;;;;;;;5.35;1.27;;;;;;;;;;5083106;28;20433;-75
2022/11/04 11:10:04;;;;;;;5.65;1.40;;;13.70;99.90;;;;;;5090520;28;20409;-75
2022/11/04 11:12:39;;;;;;;5.18;1.42;;;;;;;;;;5094218;28;20416;-74
2022/11/04 11:15:38;;;;;;;5.65;1.30;;;13.60;99.90;;;;;;5055635;28;20437;-75
2022/11/04 11:18:04;;;;;;;4.55;1.15;;;;;;;;;;5026362;28;20415;-74
2022/11/04 11:20:32;;;;;;;3.85;1.40;;;;;;;;;;5088568;28;20770;-74
2022/11/04 11:23:00;;;;;;;3.22;0.73;;;;;;;;;;5086683;28;20494;-74
2022/11/04 11:25:25;;;;;;;3.63;0.88;;;13.00;99.90;;;;;;5088421;28;20422;-74
2022/11/04 11:27:54;;;;;;;2.73;1.00;;;;;;;;;;5088233;28;20425;-74
2022/11/04 11:30:27;;;;;;;2.57;1.00;;;12.80;99.90;;;;;;5083135;28;20436;-74
2022/11/04 11:32:55;;;;;;;5.30;1.00;;;;;;;;;;5089873;28;20507;-74
2022/11/04 11:35:25;;;;;;;5.20;1.33;;;12.20;99.90;;;;;;5071274;28;20426;-74
2022/11/04 11:37:51;;;;;;;3.88;1.10;;;12.10;99.90;;;;;;5085963;28;20499;-75
2022/11/04 11:40:36;;;;;;;3.45;1.00;;;12.40;99.90;;;;;;5055494;28;20414;-75
2022/11/04 11:43:04;;;;;;;3.47;0.95;;;12.00;99.90;;;;;;5090542;28;20405;-75
2022/11/04 11:45:31;;;;;;;2.85;1.00;;;12.00;99.90;;;;;;5085661;28;20426;-75
2022/11/04 11:47:57;;;;;;;3.33;0.90;;;12.20;99.90;;;;;;5080683;28;20410;-76
2022/11/04 11:50:33;;;;;;;5.38;1.10;;;;;;;;;;5088424;28;20509;-75
2022/11/04 11:53:22;;;;;;;3.67;1.00;;;12.10;99.90;;;;;;5078581;28;20428;-76
2022/11/04 11:56:09;;;;;;;3.35;0.90;;;;;;;;;;5066519;28;20499;-76
2022/11/04 11:58:44;;;;;;;4.40;1.23;;;;;;;;;;5085123;28;20422;-75
2022/11/04 12:01:41;;;;;;;3.78;0.98;;;12.80;99.90;;;;;;5072635;28;20430;-74
2022/11/04 12:04:07;;;;;;;4.28;1.23;;;;;;;;;;5079534;28;20411;-74
2022/11/04 12:06:47;;;;;;;3.42;1.40;;;12.40;99.90;;;;;;5081652;28;20427;-74
2022/11/04 12:09:33;;;;;;;4.22;1.20;;;;;;;;;;5088238;28;20435;-74
2022/11/04 12:12:18;;;;;;;3.47;1.08;;;;;;;;;;5068784;28;20879;-75
2022/11/04 12:14:50;;;;;;;4.15;1.10;;;11.90;99.90;;;;;;5081110;28;21011;-74
2022/11/04 12:17:51;;;;;;;3.03;1.10;;;11.90;99.90;;;;;;5069226;28;20422;-74
2022/11/04 12:20:55;;;;;;;4.15;1.08;;;12.00;99.90;;;;;;5083041;28;20780;-74
2022/11/04 12:23:33;;;;;;;4.35;1.20;;;12.10;99.90;;;;;;5087972;28;20416;-76
2022/11/04 12:26:00;;;;;;;5.05;1.10;;;;;;;;;;5068464;28;20427;-76
2022/11/04 12:28:32;;;;;;;5.00;1.40;;;;;;;;;;5070602;28;20774;-73
2022/11/04 12:31:05;;;;;;;3.03;1.02;;;;;;;;;;5084067;28;20442;-74
2022/11/04 12:33:34;;;;;;;3.95;1.30;;;;;;;;;;5085822;28;20421;-75
2022/11/04 12:36:14;;;;;;;4.45;1.02;;;13.00;99.90;;;;;;5085443;28;20425;-75
2022/11/04 12:38:46;;;;;;;3.33;1.20;;;;;;;;;;5067424;28;20422;-75
2022/11/04 12:41:20;;;;;;;2.95;1.00;;;;;;;;;;5067850;28;20494;-75
2022/11/04 12:43:46;;;;;;;4.40;1.20;;;;;;;;;;5092664;28;20422;-75
2022/11/04 12:46:45;;;;;;;3.60;0.85;;;13.00;99.90;;;;;;5072005;28;20406;-76
2022/11/04 12:49:17;;;;;;;3.90;1.10;;;;;;;;;;5064522;28;20465;-76
2022/11/04 12:51:49;;;;;;;3.67;1.15;;;;;;;;;;5096099;28;20835;-76
2022/11/04 12:54:34;;;;;;;3.60;1.08;;;;;;;;;;5091200;28;20425;-76
2022/11/04 12:57:29;;;;;;;4.90;1.20;;;13.10;99.90;;;;;;5090337;28;20482;-76
2022/11/04 13:00:12;;;;;;;5.50;1.30;;;12.90;99.90;;;;;;5064867;28;20481;-76
2022/11/04 13:02:53;;;;;;;3.15;1.20;;;12.80;99.90;;;;;;5085712;28;20435;-75
2022/11/04 13:05:19;;;;;;;5.90;1.45;;;;;;;;;;5075820;28;20425;-76
2022/11/04 13:08:10;;;;;;;3.93;1.20;;;12.50;99.90;;;;;;5088443;28;20758;-75
2022/11/04 13:10:47;;;;;;;5.97;1.45;;;;;;;;;;5099682;28;20429;-75
2022/11/04 13:13:15;;;;;;;5.63;1.30;;;;;;;;;;5091250;28;20416;-75
2022/11/04 13:15:55;;;;;;;6.17;1.40;;;12.60;99.90;;;;;;5071767;28;20489;-75
2022/11/04 13:18:23;;;;;;;5.25;1.60;;;;;;;;;;5094118;28;20538;-75
2022/11/04 13:21:02;;;;;;;6.57;1.37;;;12.70;99.90;;;;;;5076552;28;20463;-75
2022/11/04 13:24:06;;;;;;;6.47;1.58;;;12.50;99.90;;;;;;5066612;28;20427;-74
2022/11/04 13:26:32;;;;;;;7.93;1.63;;;;;;;;;;5088494;28;20452;-75
2022/11/04 13:29:05;;;;;;;5.82;1.73;;;;;;;;;;5089567;28;20474;-75
2022/11/04 13:31:37;;;;;;;8.73;1.52;;;;;;;;;;5069533;28;20429;-75
2022/11/04 13:34:24;;;;;;;7.13;2.00;;;12.70;99.90;;;;;;5100388;28;20427;-75
2022/11/04 13:37:02;;;;;;;6.13;1.60;;;;;;;;;;5093946;28;20416;-76
2022/11/04 13:39:28;;;;;;;5.95;1.73;;;;;;;;;;5062402;28;20815;-75
2022/11/04 13:42:09;;;;;;;5.22;1.25;;;;;;;;;;5082575;28;20829;-74
2022/11/04 13:44:41;;;;;;;10.47;2.27;;;13.00;99.90;;;;;;5097710;28;20490;-75
2022/11/04 13:47:23;;;;;;;8.07;2.47;;;13.10;99.90;;;;;;5073488;28;20429;-76
2022/11/04 13:49:50;;;;;;;6.90;1.60;;;;;;;;;;5087797;28;20418;-76
2022/11/04 13:52:16;;;;;;;5.20;1.27;;;;;;;;;;5073096;28;20450;-76
2022/11/04 13:54:45;;;;;;;8.70;1.90;;;;;;;;;;5080423;28;20501;-74
2022/11/04 13:57:15;;;;;;;8.27;2.03;;;13.30;99.90;;;;;;5086220;28;21142;-75
2022/11/04 13:59:43;;;;;;;5.20;1.50;;;;;;;;;;5081966;28;20445;-77
2022/11/04 14:02:12;;;;;;;7.55;1.77;;;;;;;;;;5087173;28;20418;-78
2022/11/04 14:04:42;;;;;;;5.60;1.67;;;;;;;;;;5088066;28;20440;-77
2022/11/04 14:07:10;;;;;;;12.20;1.90;;;;;;;;;;5071370;28;20479;-78
2022/11/04 14:09:42;;;;;;;9.23;1.83;;;;;;;;;;5086915;28;20448;-78
2022/11/04 14:12:08;;;;;;;8.98;1.73;;;;;;;;;;5084535;28;20439;-77
2022/11/04 14:14:34;;;;;;;6.20;1.88;;;;;;;;;;5084302;28;20434;-77
2022/11/04 14:17:03;;;;;;;7.38;1.70;;;;;;;;;;5074054;28;20422;-77
2022/11/04 14:19:57;;;;;;;7.93;1.60;;;12.80;99.90;;;;;;5060010;28;20418;-78
2022/11/04 14:22:31;;;;;;;6.72;1.40;;;;;;;;;;5087166;28;20441;-79
2022/11/04 14:24:58;;;;;;;9.05;1.90;;;;;;;;;;5081818;28;20429;-78
2022/11/04 14:27:38;;;;;;;8.88;2.20;;;;;;;;;;5068329;28;20423;-79
2022/11/04 14:30:04;;;;;;;8.07;1.58;;;;;;;;;;5064249;28;20421;-79
2022/11/04 14:32:40;;;;;;;6.97;1.50;;;12.80;99.90;;;;;;5084101;28;20433;-78
2022/11/04 14:35:07;;;;;;;7.15;1.77;;;;;;;;;;5084692;28;20421;-78
2022/11/04 14:37:35;;;;;;;9.40;2.08;;;12.70;99.90;;;;;;5067223;28;20427;-78
2022/11/04 14:40:03;;;;;;;7.82;1.75;;;;;;;;;;5068384;28;20913;-78
2022/11/04 14:42:49;;;;;;;6.78;2.00;;;;;;;;;;5085979;28;20422;-78
2022/11/04 14:45:20;;;;;;;8.02;1.88;;;;;;;;;;5067304;28;20518;-78
2022/11/04 14:47:51;;;;;;;7.05;1.67;;;12.70;99.90;;;;;;5064191;28;20454;-78
2022/11/04 14:50:23;;;;;;;7.38;1.88;;;;;;;;;;5087186;28;20432;-77
2022/11/04 14:52:57;;;;;;;8.20;2.10;;;12.30;99.90;;;;;;5068197;28;20431;-77
2022/11/04 14:55:30;;;;;;;9.55;1.48;;;12.50;99.90;;;;;;5084612;28;20428;-77
2022/11/04 14:57:58;;;;;;;9.98;1.80;;;;;;;;;;5076555;28;20759;-79
2022/11/04 15:00:32;;;;;;;7.18;1.80;;;;;;;;;;5087291;28;20441;-78
2022/11/04 15:03:19;;;;;;;12.23;1.73;;;;;;;;;;5096123;28;20650;-78
2022/11/04 15:05:51;;;;;;;5.55;1.42;;;12.20;99.90;;;;;;5061494;28;20770;-78
2022/11/04 15:08:31;;;;;;;6.22;1.60;;;;;;;;;;5087957;28;20412;-79